Time;durP1;ratioP1;P1;durP2;ratioP2;P2;SDS_P1;SDS_P2;PMS_P1;PMS_P2;Temp;Humidity;BMP_temperature;BMP_pressure;BME280_temperature;BME280_humidity;BME280_pressure;Samples;Min_cycle;Max_cycle;Signal;HPM_P1;HPM_P2
2023/01/22 00:00:54;;;;;;;28.73;17.27;;;-1.40;99.90;;;-2.45;100.00;102882.94;4134409;28;20053;-78
2023/01/22 00:02:55;;;;;;;35.33;20.10;;;-1.30;99.90;;;-2.42;100.00;102886.31;4151760;28;20041;-76
2023/01/22 00:04:56;;;;;;;31.60;19.65;;;-1.30;99.90;;;-2.40;100.00;102894.94;4150390;28;20026;-77
2023/01/22 00:06:57;;;;;;;32.63;21.23;;;-1.30;99.90;;;-2.42;100.00;102888.06;4157551;28;20029;-77
2023/01/22 00:09:02;;;;;;;31.10;19.48;;;-1.20;99.90;;;-2.40;100.00;102894.94;4159930;28;20030;-76
2023/01/22 00:11:03;;;;;;;32.95;18.65;;;-1.20;99.90;;;-2.44;100.00;102882.91;4153686;28;20040;-76
2023/01/22 00:13:04;;;;;;;33.63;17.83;;;-1.30;99.90;;;-2.45;100.00;102877.78;4150734;28;20038;-76
2023/01/22 00:15:06;;;;;;;31.98;18.08;;;-1.20;99.90;;;-2.38;100.00;102875.06;4152165;28;20026;-77
2023/01/22 00:17:07;;;;;;;35.65;18.92;;;-1.20;99.90;;;-2.33;100.00;102883.59;4157905;28;20059;-77
2023/01/22 00:19:09;;;;;;;34.53;18.27;;;-1.20;99.90;;;-2.33;100.00;102881.03;4154787;28;20022;-77
2023/01/22 00:21:11;;;;;;;31.42;18.02;;;-1.20;99.90;;;-2.25;100.00;102888.69;4134767;28;20117;-77
2023/01/22 00:23:12;;;;;;;28.50;16.23;;;-1.20;99.90;;;-2.21;100.00;102880.00;4152544;28;20048;-77
2023/01/22 00:25:13;;;;;;;31.65;17.13;;;-1.10;99.90;;;-2.13;100.00;102891.09;4151325;28;20085;-77
2023/01/22 00:27:14;;;;;;;28.45;15.65;;;-1.10;99.90;;;-2.14;100.00;102878.16;4159283;28;20013;-77
2023/01/22 00:29:16;;;;;;;31.80;17.27;;;-1.10;99.90;;;-2.08;100.00;102878.09;4152480;28;20032;-77
2023/01/22 00:31:17;;;;;;;27.65;16.63;;;-1.00;99.90;;;-2.10;100.00;102880.69;4151399;28;20036;-77
2023/01/22 00:33:18;;;;;;;31.33;16.17;;;-1.00;99.90;;;-2.10;100.00;102874.66;4150891;28;20030;-77
2023/01/22 00:35:19;;;;;;;33.17;17.98;;;-1.00;99.90;;;-2.10;100.00;102872.94;4152253;28;20064;-77
2023/01/22 00:37:20;;;;;;;28.23;15.85;;;-1.00;99.90;;;-2.25;100.00;102848.19;4155851;28;20108;-77
2023/01/22 00:39:21;;;;;;;30.55;16.10;;;-1.00;99.90;;;-2.18;100.00;102861.03;4151142;28;20395;-77
2023/01/22 00:41:22;;;;;;;28.58;15.90;;;-1.00;99.90;;;-2.14;100.00;102867.84;4151093;28;20394;-77
2023/01/22 00:43:22;;;;;;;32.25;16.38;;;-1.00;99.90;;;-2.18;100.00;102869.59;4151128;28;20033;-77
2023/01/22 00:45:23;;;;;;;34.35;17.10;;;-1.00;99.90;;;-2.21;100.00;102861.06;4151923;28;20026;-77
2023/01/22 00:47:25;;;;;;;29.80;18.00;;;-1.10;99.90;;;-2.22;100.00;102857.63;4152063;28;20022;-76
2023/01/22 00:49:26;;;;;;;29.60;16.88;;;-1.10;99.90;;;-2.26;100.00;102853.38;4152059;28;20033;-76
2023/01/22 00:51:27;;;;;;;25.35;15.43;;;-1.10;99.90;;;-2.27;100.00;102857.66;4150981;28;20026;-77
2023/01/22 00:53:27;;;;;;;30.52;18.40;;;-1.10;99.90;;;-2.32;100.00;102856.91;4151009;28;20050;-76
2023/01/22 00:55:29;;;;;;;31.02;16.52;;;-1.20;99.90;;;-2.30;100.00;102852.56;4152293;28;20449;-76
2023/01/22 00:57:30;;;;;;;29.70;16.00;;;-1.20;99.90;;;-2.37;100.00;102844.94;4159983;28;20556;-77
2023/01/22 00:59:31;;;;;;;30.90;17.25;;;-1.20;99.90;;;-2.29;100.00;102856.84;4155470;28;20033;-77
2023/01/22 01:01:32;;;;;;;29.90;17.70;;;-1.20;99.90;;;-2.32;100.00;102853.44;4155277;28;20034;-76
2023/01/22 01:03:36;;;;;;;31.95;18.00;;;-1.20;99.90;;;-2.32;100.00;102858.63;4155269;28;20061;-77
2023/01/22 01:05:37;;;;;;;31.17;16.98;;;-1.20;99.90;;;-2.29;100.00;102853.41;4155346;28;20061;-77
2023/01/22 01:07:38;;;;;;;29.33;16.42;;;-1.20;99.90;;;-2.35;100.00;102836.25;4157101;28;20041;-77
2023/01/22 01:09:38;;;;;;;29.00;16.40;;;-1.20;99.90;;;-2.30;100.00;102852.56;4155227;28;20409;-77
2023/01/22 01:11:39;;;;;;;28.60;16.65;;;-1.20;99.90;;;-2.36;100.00;102839.72;4155629;28;20025;-76
2023/01/22 01:13:42;;;;;;;30.63;16.67;;;-1.20;99.90;;;-2.38;100.00;102844.06;4154129;28;20058;-77
2023/01/22 01:15:43;;;;;;;30.65;17.17;;;-1.20;99.90;;;-2.40;100.00;102843.25;4154064;28;20561;-76
2023/01/22 01:17:45;;;;;;;26.83;16.08;;;-1.30;99.90;;;-2.46;100.00;102843.34;4156443;28;20054;-77
2023/01/22 01:19:45;;;;;;;28.42;16.08;;;-1.30;99.90;;;-2.47;100.00;102841.63;4155251;28;20034;-77
2023/01/22 01:21:47;;;;;;;28.80;15.93;;;-1.30;99.90;;;-2.50;100.00;102838.22;4153751;28;20050;-77
2023/01/22 01:23:48;;;;;;;33.90;17.13;;;-1.40;99.90;;;-2.52;100.00;102840.84;4153947;28;20017;-77
2023/01/22 01:25:49;;;;;;;31.02;17.10;;;-1.40;99.90;;;-2.52;100.00;102840.84;4156358;28;20026;-77
2023/01/22 01:27:50;;;;;;;31.77;17.85;;;-1.40;99.90;;;-2.54;100.00;102839.97;4166413;28;20100;-77
2023/01/22 01:29:50;;;;;;;35.17;17.92;;;-1.40;99.90;;;-2.55;100.00;102840.88;4153904;28;20456;-77
2023/01/22 01:31:53;;;;;;;30.48;17.40;;;-1.40;99.90;;;-2.59;100.00;102841.78;4155220;28;20026;-77
2023/01/22 01:33:54;;;;;;;33.63;17.95;;;-1.40;99.90;;;-2.62;100.00;102839.25;4153484;28;20022;-77
2023/01/22 01:36:04;;;;;;;27.80;17.50;;;-1.40;99.90;;;-2.62;100.00;102846.13;4153804;28;20025;-77
2023/01/22 01:38:05;;;;;;;28.17;16.02;;;-1.50;99.90;;;-2.61;100.00;102840.97;4153913;28;20034;-77
2023/01/22 01:40:08;;;;;;;33.67;18.05;;;-1.50;99.90;;;-2.68;100.00;102835.88;4153464;28;20545;-77
2023/01/22 01:42:09;;;;;;;29.17;15.70;;;-1.50;99.90;;;-2.65;100.00;102847.03;4153568;28;20045;-77
2023/01/22 01:44:18;;;;;;;31.30;17.25;;;-1.50;99.90;;;-2.64;100.00;102856.50;4155002;28;20541;-77
2023/01/22 01:46:23;;;;;;;28.65;15.77;;;-1.50;99.90;;;-2.64;100.00;102856.50;4158925;28;20025;-77
2023/01/22 01:48:39;;;;;;;26.02;16.67;;;-1.50;99.90;;;-2.65;100.00;102854.78;4155637;28;20145;-76
2023/01/22 01:50:45;;;;;;;29.75;16.52;;;-1.50;99.90;;;-2.62;100.00;102859.91;4153901;28;20449;-77
2023/01/22 01:52:46;;;;;;;31.20;17.35;;;-1.50;99.90;;;-2.64;100.00;102853.91;4153632;28;20026;-77
2023/01/22 01:54:52;;;;;;;28.75;16.35;;;-1.50;99.90;;;-2.60;100.00;102868.50;4137089;28;20041;-77
2023/01/22 01:57:08;;;;;;;30.42;17.08;;;-1.50;99.90;;;-2.59;100.00;102862.44;4158692;28;20113;-77
2023/01/22 01:59:16;;;;;;;35.13;18.08;;;-1.50;99.90;;;-2.62;100.00;102871.97;4153653;28;20045;-77
2023/01/22 02:01:18;;;;;;;31.70;19.20;;;-1.40;99.90;;;-2.52;100.00;102874.41;4153357;28;20026;-77
2023/01/22 02:03:21;;;;;;;30.17;16.75;;;-1.40;99.90;;;-2.50;100.00;102875.25;4153170;28;20030;-77
2023/01/22 02:05:24;;;;;;;33.28;17.90;;;-1.40;99.90;;;-2.55;100.00;102873.59;4153547;28;20548;-77
2023/01/22 02:07:25;;;;;;;36.53;19.17;;;-1.40;99.90;;;-2.56;100.00;102883.06;4155997;28;20402;-77
2023/01/22 02:09:26;;;;;;;31.75;17.45;;;-1.40;99.90;;;-2.55;100.00;102884.78;4152588;28;20076;-77
2023/01/22 02:11:29;;;;;;;32.75;17.05;;;-1.40;99.90;;;-2.55;100.00;102881.34;4136813;28;20034;-77
2023/01/22 02:13:34;;;;;;;33.90;17.38;;;-1.40;99.90;;;-2.54;100.00;102877.91;4154879;28;20056;-77
2023/01/22 02:15:37;;;;;;;32.42;16.73;;;-1.40;99.90;;;-2.52;100.00;102871.84;4154484;28;20029;-76
2023/01/22 02:17:38;;;;;;;31.17;17.92;;;-1.40;99.90;;;-2.53;100.00;102869.25;4165996;28;20026;-76
2023/01/22 02:19:40;;;;;;;33.92;17.38;;;-1.40;99.90;;;-2.52;100.00;102869.25;4154377;28;20038;-76
2023/01/22 02:21:43;;;;;;;35.20;17.50;;;-1.40;99.90;;;-2.55;100.00;102871.03;4154115;28;20068;-76
2023/01/22 02:23:44;;;;;;;29.45;16.45;;;-1.40;99.90;;;-2.72;100.00;102847.16;4153087;28;20460;-77
2023/01/22 02:25:45;;;;;;;33.70;16.77;;;-1.40;99.90;;;-2.68;100.00;102867.72;4153750;28;20026;-76
2023/01/22 02:27:46;;;;;;;32.83;17.48;;;-1.50;99.90;;;-2.71;100.00;102864.34;4163277;28;20513;-76
2023/01/22 02:29:47;;;;;;;28.52;17.13;;;-1.50;99.90;;;-2.78;100.00;102864.41;4153318;28;20018;-77
2023/01/22 02:31:48;;;;;;;29.38;16.23;;;-1.60;99.90;;;-2.77;100.00;102865.28;4152899;28;20060;-77
2023/01/22 02:33:49;;;;;;;30.08;16.63;;;-1.60;99.90;;;-2.78;100.00;102859.25;4153746;28;20022;-76
2023/01/22 02:35:50;;;;;;;33.25;17.88;;;-1.60;99.90;;;-2.72;100.00;102868.66;4152951;28;20089;-77
2023/01/22 02:37:51;;;;;;;30.10;16.25;;;-1.60;99.90;;;-2.70;100.00;102881.56;4160417;28;20486;-77
2023/01/22 02:39:52;;;;;;;33.72;17.15;;;-1.60;99.90;;;-2.69;100.00;102873.81;4154014;28;20026;-77
2023/01/22 02:41:53;;;;;;;31.92;17.02;;;-1.60;99.90;;;-2.72;100.00;102873.84;4153379;28;20033;-77
2023/01/22 02:43:54;;;;;;;30.55;16.65;;;-1.60;99.90;;;-2.75;100.00;102876.47;4152710;28;20037;-77
2023/01/22 02:45:55;;;;;;;28.48;16.55;;;-1.60;99.90;;;-2.68;100.00;102880.66;4136386;28;20022;-77
2023/01/22 02:47:56;;;;;;;32.40;17.20;;;-1.60;99.90;;;-2.66;100.00;102878.94;4153817;28;20037;-77
2023/01/22 02:49:56;;;;;;;29.70;17.63;;;-1.50;99.90;;;-2.66;100.00;102876.34;4153673;28;20389;-77
2023/01/22 02:51:57;;;;;;;33.25;17.27;;;-1.50;99.90;;;-2.61;100.00;102881.44;4136374;28;20076;-77
2023/01/22 02:53:58;;;;;;;34.80;16.95;;;-1.50;99.90;;;-2.67;100.00;102882.38;4153944;28;20033;-77
2023/01/22 02:55:59;;;;;;;34.20;17.35;;;-1.50;99.90;;;-2.72;100.00;102868.66;4152528;28;20033;-77
2023/01/22 02:58:00;;;;;;;33.50;16.38;;;-1.50;99.90;;;-2.71;100.00;102893.59;4153582;28;20034;-77
2023/01/22 03:00:02;;;;;;;31.33;16.23;;;-1.50;99.90;;;-2.73;100.00;102891.91;4154046;28;20028;-77
2023/01/22 03:02:03;;;;;;;31.75;16.30;;;-1.60;99.90;;;-2.81;100.00;102879.94;4153731;28;20030;-77
2023/01/22 03:04:11;;;;;;;30.73;16.00;;;-1.60;99.90;;;-2.70;100.00;102886.72;4152218;28;20033;-77
2023/01/22 03:06:14;;;;;;;32.97;16.55;;;-1.60;99.90;;;-2.74;100.00;102887.63;4152298;28;20024;-77
2023/01/22 03:08:16;;;;;;;28.70;16.38;;;-1.60;99.90;;;-2.78;100.00;102891.13;4153608;28;20022;-77
2023/01/22 03:10:19;;;;;;;33.35;17.00;;;-1.60;99.90;;;-2.76;100.00;102889.38;4152514;28;20040;-76
2023/01/22 03:12:20;;;;;;;27.75;14.75;;;-1.60;99.90;;;-2.73;100.00;102892.78;4152342;28;20415;-77
2023/01/22 03:21:22;;;;;;;27.42;14.10;;;-1.70;99.90;;;-2.82;100.00;102888.59;4151535;28;20065;-77
2023/01/22 03:23:26;;;;;;;29.48;15.38;;;-1.70;99.90;;;-2.82;100.00;102891.16;4135801;28;20041;-77
2023/01/22 03:25:27;;;;;;;23.73;13.80;;;-1.70;99.90;;;-2.82;100.00;102893.75;4164729;28;20056;-77
2023/01/22 03:27:30;;;;;;;30.83;16.08;;;-1.70;99.90;;;-2.83;100.00;102889.44;4162659;28;20037;-76
2023/01/22 03:29:31;;;;;;;29.38;16.38;;;-1.70;99.90;;;-2.78;100.00;102902.31;4135787;28;20518;-77
2023/01/22 03:31:32;;;;;;;30.80;16.42;;;-1.70;99.90;;;-2.81;100.00;102889.44;4153204;28;20037;-76
2023/01/22 03:33:33;;;;;;;31.65;14.35;;;-1.60;99.90;;;-2.89;100.00;102881.78;4151679;28;20048;-77
2023/01/22 03:35:34;;;;;;;27.15;15.00;;;-1.60;99.90;;;-2.81;100.00;102886.88;4153164;28;20044;-77
2023/01/22 03:37:35;;;;;;;26.42;15.63;;;-1.70;99.90;;;-2.83;100.00;102886.00;4158737;28;20029;-77
2023/01/22 03:39:36;;;;;;;25.92;14.50;;;-1.70;99.90;;;-2.81;100.00;102884.28;4135537;28;20031;-77
2023/01/22 03:41:37;;;;;;;28.13;14.73;;;-1.70;99.90;;;-2.79;100.00;102887.69;4151824;28;20062;-77
2023/01/22 03:43:38;;;;;;;30.85;15.20;;;-1.60;99.90;;;-2.73;100.00;102890.19;4135361;28;20061;-77
2023/01/22 03:45:39;;;;;;;28.95;15.13;;;-1.60;99.90;;;-2.70;100.00;102890.16;4153035;28;20066;-76
2023/01/22 03:47:40;;;;;;;27.67;14.80;;;-1.60;99.90;;;-2.65;100.00;102892.66;4135370;28;20081;-76
2023/01/22 03:49:41;;;;;;;26.10;15.45;;;-1.60;99.90;;;-2.68;100.00;102880.66;4135174;28;20034;-77
2023/01/22 03:51:43;;;;;;;27.70;13.57;;;-1.60;99.90;;;-2.72;100.00;102884.16;4167810;28;20033;-77
2023/01/22 03:53:46;;;;;;;29.95;15.40;;;-1.60;99.90;;;-2.66;100.00;102889.25;4151740;28;20026;-77
2023/01/22 03:55:57;;;;;;;24.98;13.70;;;-1.60;99.90;;;-2.76;100.00;102879.03;4151740;28;20120;-77
2023/01/22 03:57:58;;;;;;;28.38;13.93;;;-1.60;99.90;;;-2.75;100.00;102884.22;4137428;28;20034;-76
2023/01/22 04:00:00;;;;;;;24.85;12.77;;;-1.60;99.90;;;-2.84;100.00;102876.56;4152802;28;20037;-76
2023/01/22 04:02:01;;;;;;;30.30;14.80;;;-1.60;99.90;;;-2.84;100.00;102874.00;4135372;28;20595;-77
2023/01/22 04:04:02;;;;;;;28.40;14.65;;;-1.60;99.90;;;-2.84;100.00;102876.56;4151192;28;20025;-76
2023/01/22 04:06:04;;;;;;;25.48;12.93;;;-1.70;99.90;;;-2.92;100.00;102880.94;4152637;28;20578;-76
2023/01/22 04:08:05;;;;;;;25.88;13.93;;;-1.70;99.90;;;-2.96;100.00;102876.72;4140019;28;20021;-76
2023/01/22 04:10:07;;;;;;;28.42;15.05;;;-1.70;99.90;;;-2.94;100.00;102873.25;4152825;28;20413;-76
2023/01/22 04:12:08;;;;;;;23.75;12.25;;;-1.80;99.90;;;-2.99;100.00;102876.75;4152813;28;20026;-77
2023/01/22 04:14:09;;;;;;;29.85;13.48;;;-1.80;99.90;;;-3.21;100.00;102857.22;4152539;28;20030;-76
2023/01/22 04:16:11;;;;;;;27.17;14.25;;;-1.80;99.90;;;-3.18;100.00;102867.50;4153343;28;20030;-77
2023/01/22 04:18:12;;;;;;;32.33;15.23;;;-1.90;99.90;;;-3.21;100.00;102873.56;4161402;28;20468;-77
2023/01/22 04:20:13;;;;;;;27.40;14.77;;;-2.00;99.90;;;-3.25;100.00;102871.00;4152242;28;20022;-77
2023/01/22 04:22:14;;;;;;;28.08;14.30;;;-2.00;99.90;;;-3.25;100.00;102868.41;4151314;28;20037;-76
2023/01/22 04:24:15;;;;;;;26.35;13.63;;;-2.00;99.90;;;-3.23;100.00;102875.31;4153808;28;20109;-76
2023/01/22 04:26:16;;;;;;;27.00;14.35;;;-2.00;99.90;;;-3.26;100.00;102861.56;4153863;28;20030;-77
2023/01/22 04:28:17;;;;;;;26.27;13.32;;;-2.10;99.90;;;-3.23;100.00;102874.44;4160187;28;20026;-77
2023/01/22 04:30:19;;;;;;;31.73;14.95;;;-2.10;99.90;;;-3.21;100.00;102868.38;4151129;28;20096;-77
2023/01/22 04:32:19;;;;;;;30.83;15.38;;;-2.10;99.90;;;-3.21;100.00;102865.81;4150851;28;20032;-77
2023/01/22 04:34:20;;;;;;;27.00;14.43;;;-2.00;99.90;;;-3.18;100.00;102859.75;4134762;28;20033;-77
2023/01/22 04:36:21;;;;;;;25.88;14.75;;;-2.00;99.90;;;-3.17;100.00;102864.91;4151355;28;20173;-76
2023/01/22 04:38:22;;;;;;;27.77;15.75;;;-2.00;99.90;;;-3.20;100.00;102857.19;4152364;28;20038;-77
2023/01/22 04:40:24;;;;;;;27.13;14.40;;;-2.00;99.90;;;-3.19;100.00;102863.19;4150845;28;20104;-77
2023/01/22 04:42:26;;;;;;;29.08;16.17;;;-2.00;99.90;;;-3.23;100.00;102852.06;4150899;28;20034;-77
2023/01/22 04:44:26;;;;;;;35.85;16.17;;;-2.00;99.90;;;-3.21;100.00;102860.66;4151165;28;20032;-77
2023/01/22 04:46:27;;;;;;;27.42;14.88;;;-2.00;99.90;;;-3.18;100.00;102862.34;4152245;28;20036;-77
2023/01/22 04:48:28;;;;;;;28.63;14.90;;;-1.90;99.90;;;-3.15;100.00;102859.72;4150751;28;20060;-77
2023/01/22 04:50:32;;;;;;;24.13;14.40;;;-1.90;99.90;;;-3.09;100.00;102869.97;4151174;28;20046;-77
2023/01/22 04:52:33;;;;;;;24.75;13.50;;;-1.90;99.90;;;-3.17;100.00;102859.75;4152226;28;20060;-77
2023/01/22 04:54:33;;;;;;;25.00;13.82;;;-2.00;99.90;;;-3.16;100.00;102871.75;4152174;28;20034;-77
2023/01/22 04:56:34;;;;;;;26.17;15.43;;;-2.00;99.90;;;-3.12;100.00;102878.63;4152789;28;20018;-77
2023/01/22 04:58:35;;;;;;;27.65;15.23;;;-2.00;99.90;;;-3.13;100.00;102882.06;4152441;28;20112;-77
2023/01/22 05:00:36;;;;;;;27.70;13.98;;;-1.90;99.90;;;-3.17;100.00;102875.25;4151974;28;20026;-76
2023/01/22 05:02:37;;;;;;;27.52;16.00;;;-2.00;99.90;;;-3.22;100.00;102882.16;4152166;28;20033;-76
2023/01/22 05:04:38;;;;;;;28.63;15.10;;;-2.00;99.90;;;-3.20;100.00;102882.16;4150671;28;20462;-77
2023/01/22 05:06:39;;;;;;;31.08;15.32;;;-2.00;99.90;;;-3.26;100.00;102871.88;4156106;28;20029;-76
2023/01/22 05:08:40;;;;;;;29.75;13.50;;;-2.00;99.90;;;-3.18;100.00;102883.84;4143797;28;20439;-77
2023/01/22 05:10:41;;;;;;;23.83;12.65;;;-2.10;99.90;;;-3.23;100.00;102885.63;4152148;28;20026;-77
2023/01/22 05:12:41;;;;;;;27.73;13.85;;;-2.10;99.90;;;-3.24;100.00;102880.47;4151960;28;20064;-77
2023/01/22 05:14:42;;;;;;;23.67;14.82;;;-2.10;99.90;;;-3.26;100.00;102875.34;4134511;28;20026;-77
2023/01/22 05:16:43;;;;;;;29.23;14.57;;;-2.10;99.90;;;-3.27;100.00;102871.03;4156203;28;20053;-76
2023/01/22 05:18:44;;;;;;;24.25;13.70;;;-2.10;99.90;;;-3.29;100.00;102872.78;4157629;28;20037;-76
2023/01/22 05:20:45;;;;;;;27.90;14.88;;;-2.10;99.90;;;-3.27;100.00;102870.16;4150814;28;20046;-76
2023/01/22 05:22:46;;;;;;;26.58;14.23;;;-2.10;99.90;;;-3.29;100.00;102874.50;4135060;28;20050;-77
2023/01/22 05:24:48;;;;;;;31.20;14.57;;;-2.10;99.90;;;-3.32;100.00;102875.41;4155181;28;20041;-77
2023/01/22 05:26:49;;;;;;;26.42;13.98;;;-2.10;99.90;;;-3.33;100.00;102877.97;4163104;28;20022;-77
2023/01/22 05:28:50;;;;;;;28.35;14.20;;;-2.10;99.90;;;-3.48;100.00;102860.94;4153424;28;20029;-77
2023/01/22 05:30:51;;;;;;;27.20;13.70;;;-2.10;99.90;;;-3.38;100.00;102883.19;4150861;28;20061;-76
2023/01/22 05:32:56;;;;;;;25.48;13.15;;;-2.10;99.90;;;-3.43;100.00;102878.06;4151975;28;20482;-76
2023/01/22 05:34:57;;;;;;;25.50;13.77;;;-2.10;99.90;;;-3.38;100.00;102881.47;4150513;28;20022;-77
2023/01/22 05:36:58;;;;;;;26.73;14.73;;;-2.20;99.90;;;-3.34;100.00;102881.44;4157032;28;20040;-76
2023/01/22 05:38:59;;;;;;;25.70;14.02;;;-2.10;99.90;;;-3.32;100.00;102877.13;4150519;28;20502;-77
2023/01/22 05:40:59;;;;;;;25.73;13.55;;;-2.10;99.90;;;-3.28;100.00;102881.34;4151041;28;20038;-76
2023/01/22 05:43:03;;;;;;;25.00;13.90;;;-2.10;99.90;;;-3.23;100.00;102884.75;4151944;28;20026;-77
2023/01/22 05:45:05;;;;;;;24.90;13.95;;;-2.10;99.90;;;-3.26;100.00;102872.75;4154929;28;20034;-76
2023/01/22 05:47:06;;;;;;;25.98;14.00;;;-2.10;99.90;;;-3.19;100.00;102876.09;4156541;28;20021;-76
2023/01/22 05:49:07;;;;;;;25.90;13.85;;;-2.00;99.90;;;-3.13;100.00;102881.19;4154681;28;20026;-77
2023/01/22 05:51:09;;;;;;;31.45;14.30;;;-2.00;99.90;;;-3.13;100.00;102870.88;4154709;28;20107;-77
2023/01/22 05:53:10;;;;;;;28.13;13.32;;;-1.90;99.90;;;-3.06;100.00;102875.09;4153643;28;20394;-77
2023/01/22 05:55:11;;;;;;;25.92;13.43;;;-1.90;99.90;;;-3.11;100.00;102862.25;4154784;28;20034;-77
2023/01/22 05:57:12;;;;;;;25.83;13.80;;;-1.90;99.90;;;-3.08;100.00;102863.94;4154840;28;20516;-77
2023/01/22 05:59:13;;;;;;;26.80;13.20;;;-1.90;99.90;;;-3.14;100.00;102849.38;4153407;28;20533;-77
2023/01/22 06:01:14;;;;;;;25.27;12.85;;;-1.90;99.90;;;-3.02;100.00;102859.56;4154437;28;20034;-76
2023/01/22 06:03:15;;;;;;;27.13;13.38;;;-1.80;99.90;;;-3.02;100.00;102861.28;4154450;28;20076;-77
2023/01/22 06:05:16;;;;;;;24.73;12.98;;;-1.80;99.90;;;-3.05;100.00;102845.84;4153309;28;20022;-77
2023/01/22 06:07:17;;;;;;;28.02;13.93;;;-1.80;99.90;;;-3.06;100.00;102849.28;4161457;28;20416;-77
2023/01/22 06:09:17;;;;;;;25.88;12.70;;;-1.80;99.90;;;-3.07;100.00;102839.81;4155976;28;20057;-77
2023/01/22 06:11:18;;;;;;;23.83;12.70;;;-1.80;99.90;;;-3.00;100.00;102857.81;4153345;28;20038;-76
2023/01/22 06:13:19;;;;;;;28.23;13.68;;;-1.80;99.90;;;-3.07;100.00;102858.75;4153402;28;20142;-77
2023/01/22 06:15:20;;;;;;;25.67;12.90;;;-1.80;99.90;;;-3.05;100.00;102866.50;4153435;28;20030;-76
2023/01/22 06:17:21;;;;;;;29.30;14.30;;;-1.80;99.90;;;-3.12;100.00;102857.09;4161498;28;20064;-76
2023/01/22 06:19:22;;;;;;;24.63;14.30;;;-1.80;99.90;;;-3.11;100.00;102863.97;4153550;28;20713;-76
2023/01/22 06:21:23;;;;;;;25.67;13.50;;;-1.90;99.90;;;-3.15;100.00;102865.75;4136623;28;20053;-76
2023/01/22 06:23:25;;;;;;;25.10;13.77;;;-1.90;99.90;;;-3.10;100.00;102868.25;4153249;28;20021;-77
2023/01/22 06:25:26;;;;;;;26.27;13.00;;;-1.90;99.90;;;-3.13;100.00;102871.72;4155129;28;20394;-76
2023/01/22 06:27:27;;;;;;;22.40;12.70;;;-1.90;99.90;;;-3.24;100.00;102873.59;4160004;28;20033;-76
2023/01/22 06:29:28;;;;;;;23.00;12.82;;;-1.90;99.90;;;-3.33;100.00;102884.00;4136746;28;20033;-76
2023/01/22 06:31:30;;;;;;;26.30;13.70;;;-2.00;99.90;;;-3.40;100.00;102878.03;4153214;28;20050;-76
2023/01/22 06:33:35;;;;;;;25.17;13.35;;;-2.10;99.90;;;-3.42;100.00;102876.34;4154114;28;20500;-76
2023/01/22 06:35:36;;;;;;;29.20;14.77;;;-2.20;99.90;;;-3.44;100.00;102875.53;4136659;28;20061;-76
2023/01/22 06:37:37;;;;;;;24.60;13.75;;;-2.20;99.90;;;-3.46;100.00;102865.19;4158041;28;20030;-76
2023/01/22 06:39:38;;;;;;;22.77;13.80;;;-2.20;99.90;;;-3.39;100.00;102864.28;4154018;28;20026;-76
2023/01/22 06:41:39;;;;;;;24.50;12.90;;;-2.20;99.90;;;-3.34;100.00;102871.13;4153921;28;20026;-77
2023/01/22 06:43:39;;;;;;;24.88;13.10;;;-2.20;99.90;;;-3.31;100.00;102866.75;4153951;28;20034;-77
2023/01/22 06:45:40;;;;;;;29.45;13.88;;;-2.20;99.90;;;-3.31;100.00;102864.19;4152534;28;20493;-76
2023/01/22 06:47:45;;;;;;;26.88;13.23;;;-2.10;99.90;;;-3.30;100.00;102863.31;4155415;28;20022;-77
2023/01/22 06:49:45;;;;;;;;;;;-2.10;99.90;;;-3.32;100.00;102875.41;4152382;28;20497;-77
2023/01/22 06:51:46;;;;;;;22.23;11.77;;;-2.10;99.90;;;-3.36;100.00;102878.88;4154025;28;19916;-76
2023/01/22 06:53:47;;;;;;;25.30;12.82;;;-2.10;99.90;;;-3.36;100.00;102878.88;4152647;28;20018;-76
2023/01/22 06:55:48;;;;;;;23.33;12.85;;;-2.10;99.90;;;-3.45;100.00;102871.22;4152390;28;20026;-76
2023/01/22 06:57:49;;;;;;;23.30;12.95;;;-2.20;99.90;;;-3.45;100.00;102878.97;4153741;28;20124;-77
2023/01/22 06:59:50;;;;;;;25.20;12.98;;;-2.20;99.90;;;-3.51;100.00;102874.72;4152359;28;20037;-77
2023/01/22 07:01:51;;;;;;;25.90;13.98;;;-2.30;99.90;;;-3.46;100.00;102888.41;4152410;28;20513;-76
2023/01/22 07:03:52;;;;;;;23.95;12.35;;;-2.30;99.90;;;-3.48;100.00;102889.31;4153403;28;20076;-76
2023/01/22 07:06:02;;;;;;;25.25;13.32;;;-2.30;99.90;;;-3.51;100.00;102890.19;4153680;28;20104;-76
2023/01/22 07:08:03;;;;;;;23.60;12.20;;;-2.30;99.90;;;-3.52;100.00;102892.78;4140752;28;20121;-76
2023/01/22 07:10:04;;;;;;;23.73;12.68;;;-2.40;99.90;;;-3.52;100.00;102883.31;4153582;28;20371;-76
2023/01/22 07:12:05;;;;;;;28.98;14.15;;;-2.30;99.90;;;-3.51;100.00;102882.44;4153700;28;20080;-76
2023/01/22 07:14:06;;;;;;;26.80;12.32;;;-2.30;99.90;;;-3.44;100.00;102891.84;4152338;28;20108;-76
2023/01/22 07:16:07;;;;;;;26.35;13.10;;;-2.30;99.90;;;-3.39;100.00;102894.38;4153174;28;20048;-76
2023/01/22 07:18:09;;;;;;;23.35;12.63;;;-2.30;99.90;;;-3.38;100.00;102890.94;4152092;28;20033;-76
2023/01/22 07:20:11;;;;;;;23.33;13.85;;;-2.20;99.90;;;-3.36;100.00;102892.63;4151987;28;20057;-76
2023/01/22 07:22:12;;;;;;;25.15;13.25;;;-2.20;99.90;;;-3.33;100.00;102902.06;4153510;28;20105;-76
2023/01/22 07:24:13;;;;;;;27.63;12.55;;;-2.20;99.90;;;-3.37;100.00;102902.94;4155720;28;20436;-76
2023/01/22 07:26:14;;;;;;;20.27;11.48;;;-2.20;99.90;;;-3.37;100.00;102914.13;4166555;28;20021;-76
2023/01/22 07:28:15;;;;;;;22.92;11.50;;;-2.10;99.90;;;-3.48;100.00;102915.97;4165060;28;20048;-76
2023/01/22 07:30:16;;;;;;;22.58;13.00;;;-2.20;99.90;;;-3.53;100.00;102920.31;4132101;28;20031;-76
2023/01/22 07:32:17;;;;;;;23.42;12.18;;;-2.30;99.90;;;-3.49;100.00;102918.53;4146006;28;20053;-76
2023/01/22 07:34:18;;;;;;;23.83;12.68;;;-2.30;99.90;;;-3.47;100.00;102904.78;4145928;28;20029;-76
2023/01/22 07:36:20;;;;;;;29.00;13.23;;;-2.20;99.90;;;-3.39;100.00;102915.88;4151948;28;20021;-77
2023/01/22 07:38:21;;;;;;;27.63;13.32;;;-2.20;99.90;;;-3.32;100.00;102900.34;4135627;28;20411;-76
2023/01/22 07:40:24;;;;;;;22.63;11.88;;;-2.20;99.90;;;-3.31;100.00;102900.31;4136007;28;20502;-76
2023/01/22 07:42:24;;;;;;;22.08;12.27;;;-2.10;99.90;;;-3.33;100.00;102898.63;4151998;28;20112;-76
2023/01/22 07:44:26;;;;;;;21.60;11.52;;;-2.10;99.90;;;-3.23;100.00;102908.84;4153192;28;20105;-76
2023/01/22 07:46:27;;;;;;;23.60;12.90;;;-2.00;99.90;;;-3.21;100.00;102914.84;4156985;28;20495;-77
2023/01/22 07:48:28;;;;;;;24.48;12.25;;;-2.00;99.90;;;-3.24;100.00;102916.59;4154258;28;20022;-76
2023/01/22 07:50:31;;;;;;;20.00;11.35;;;-2.00;99.90;;;-3.30;100.00;102921.81;4151758;28;20033;-76
2023/01/22 07:52:32;;;;;;;21.10;11.55;;;-2.10;99.90;;;-3.38;100.00;102940.81;4151724;28;20030;-76
2023/01/22 07:54:35;;;;;;;22.17;12.20;;;-2.10;99.90;;;-3.53;100.00;102933.22;4152879;28;20441;-76
2023/01/22 07:56:36;;;;;;;24.25;12.70;;;-2.20;99.90;;;-3.55;100.00;102934.94;4157183;28;20083;-76
2023/01/22 07:58:38;;;;;;;22.63;12.55;;;-2.30;99.90;;;-3.51;100.00;102935.75;4151828;28;20030;-76
2023/01/22 08:00:39;;;;;;;20.35;11.93;;;-2.30;99.90;;;-3.42;100.00;102933.97;4152789;28;20056;-76
2023/01/22 08:02:41;;;;;;;23.70;12.15;;;-2.30;99.90;;;-3.40;100.00;102928.78;4152730;28;20401;-76
2023/01/22 08:04:42;;;;;;;20.20;11.40;;;-2.20;99.90;;;-3.29;100.00;102939.00;4151217;28;20069;-76
2023/01/22 08:06:43;;;;;;;19.92;11.45;;;-2.10;99.90;;;-3.26;100.00;102926.94;4153501;28;20090;-76
2023/01/22 08:08:44;;;;;;;25.10;12.02;;;-2.10;99.90;;;-3.12;100.00;102943.13;4152817;28;20029;-76
2023/01/22 08:10:45;;;;;;;22.70;12.25;;;-2.00;99.90;;;-3.06;100.00;102939.63;4152677;28;20034;-76
2023/01/22 08:12:46;;;;;;;22.38;12.75;;;-1.90;99.90;;;-2.99;100.00;102941.28;4151341;28;20030;-76
2023/01/22 08:14:47;;;;;;;23.15;12.02;;;-1.80;99.90;;;-2.98;100.00;102938.69;4151611;28;20026;-76
2023/01/22 08:16:48;;;;;;;22.17;12.15;;;-1.80;99.90;;;-2.89;100.00;102948.91;4159049;28;20026;-76